Kezdőlap
METAR-TAF:

METAR-TAF

Repülőterek :

Tadoule Lake, Manitoba, Kanada

földrajzi szélesség: 58-42-22N, földrajzi hosszúság: 98-30-44W, magasság: 281 m

Jelenlegi meteorológiai megfigyelések

A jelentés 3 órával és 52 perccel ezelõtt készült, 23:00 UTC
Délkeleti szél 8 kt
Hőmérséklet 2°C
Páratartalom 55%
Légköri nyomás 1016 hPa
Látótávolság: 14.5 km
Derült ég

METAR: CYBQ 122300Z AUTO 13008KT 9SM CLR 02/M06 A3000 RMK TS/LTNG TEMPO UNAVBL SLP183

Idő: 21:52 (02:52 UTC)


TAF: hiányzik

Meteorológiai megfigyelések és előrejelzések több, mint 4000 repülőtéren (METAR és TAF jelentéseket).

A térképen piros és sárga pontok jelzik az elérhető meteorológiai állomásokat.

Mozgassa az egeret a pont fölött, hogy megjelenjen az állomás neve.

Azután kattintson az időjárási megfigyelések és előrejelzések megtekintéséhez.

A térkép megváltoztatása: kattintson a fekete keresztel jelölt zöld gombra ráközelítéshez, a vonallal jelölt zöld gombra távolításhoz, vagy a zöld nyilakra a szomszédos térképek eléréséhez.


METAR-TAF: